createdAt,value
2023-02-04T00:00:29.605Z,36.10
2023-02-04T00:02:57.991Z,36.00
2023-02-04T00:05:26.206Z,35.80
2023-02-04T00:07:56.053Z,35.60
2023-02-04T00:10:24.099Z,35.40
2023-02-04T00:12:52.139Z,35.40
2023-02-04T00:15:20.650Z,35.20
2023-02-04T00:17:51.722Z,35.10
2023-02-04T00:20:20.255Z,35.50
2023-02-04T00:22:48.675Z,35.90
2023-02-04T00:25:18.178Z,36.00
2023-02-04T00:27:46.273Z,36.40
2023-02-04T00:30:15.269Z,36.10
2023-02-04T00:32:43.348Z,35.90
2023-02-04T00:35:11.376Z,35.70
2023-02-04T00:37:39.619Z,35.60
2023-02-04T00:40:09.134Z,35.40
2023-02-04T00:42:38.535Z,35.30
2023-02-04T00:45:07.405Z,35.10
2023-02-04T00:47:35.651Z,35.00
2023-02-04T00:50:03.707Z,35.50
2023-02-04T00:52:31.793Z,35.70
2023-02-04T00:54:59.810Z,35.90
2023-02-04T00:57:27.843Z,36.30
2023-02-04T00:59:57.405Z,36.30
2023-02-04T01:02:25.507Z,35.90
2023-02-04T01:04:53.874Z,35.70
2023-02-04T01:07:22.002Z,35.60
2023-02-04T01:09:50.572Z,36.10
2023-02-04T01:12:18.629Z,35.30
2023-02-04T01:14:49.944Z,35.20
2023-02-04T01:17:19.941Z,35.10
2023-02-04T01:19:48.072Z,35.40
2023-02-04T01:22:19.048Z,35.60
2023-02-04T01:24:47.167Z,35.80
2023-02-04T01:27:18.528Z,36.20
2023-02-04T01:29:46.926Z,36.30
2023-02-04T01:32:15.730Z,35.90
2023-02-04T01:34:45.497Z,35.80
2023-02-04T01:37:13.550Z,35.60
2023-02-04T01:39:41.580Z,35.50
2023-02-04T01:42:09.692Z,35.30
2023-02-04T01:44:37.788Z,35.20
2023-02-04T01:47:05.897Z,35.00
2023-02-04T01:49:33.962Z,35.00
2023-02-04T01:52:03.516Z,35.50
2023-02-04T01:54:31.570Z,35.60
2023-02-04T01:56:59.587Z,36.10
2023-02-04T01:59:27.639Z,36.30
2023-02-04T02:01:55.858Z,36.60
2023-02-04T02:04:28.091Z,36.70
2023-02-04T02:06:58.726Z,36.20
2023-02-04T02:09:28.439Z,36.00
2023-02-04T02:11:56.733Z,35.90
2023-02-04T02:14:27.956Z,35.60
2023-02-04T02:16:56.088Z,35.50
2023-02-04T02:19:27.269Z,35.30
2023-02-04T02:21:58.161Z,35.20
2023-02-04T02:24:29.037Z,35.20
2023-02-04T02:26:57.946Z,35.60
2023-02-04T02:29:26.177Z,35.90
2023-02-04T02:31:54.399Z,36.10
2023-02-04T02:34:22.472Z,36.40
2023-02-04T02:36:50.626Z,36.10
2023-02-04T02:39:19.213Z,35.90
2023-02-04T02:41:48.588Z,35.70
2023-02-04T02:44:16.591Z,35.50
2023-02-04T02:46:44.609Z,35.40
2023-02-04T02:49:14.300Z,35.30
2023-02-04T02:51:42.361Z,35.20
2023-02-04T02:54:14.614Z,35.00
2023-02-04T02:56:43.101Z,35.40
2023-02-04T02:59:16.675Z,35.60
2023-02-04T03:01:44.712Z,36.00
2023-02-04T03:04:12.738Z,36.20
2023-02-04T03:06:40.806Z,36.30
2023-02-04T03:09:08.806Z,35.90
2023-02-04T03:11:37.671Z,35.80
2023-02-04T03:14:05.706Z,35.60
2023-02-04T03:16:36.887Z,35.40
2023-02-04T03:19:05.314Z,35.30
2023-02-04T03:21:33.340Z,35.20
2023-02-04T03:24:01.354Z,35.10
2023-02-04T03:26:29.390Z,35.40
2023-02-04T03:28:57.456Z,35.60
2023-02-04T03:31:25.853Z,35.90
2023-02-04T03:33:55.303Z,36.20
2023-02-04T03:36:23.453Z,36.30
2023-02-04T03:38:52.278Z,35.90
2023-02-04T03:41:21.075Z,35.80
2023-02-04T03:43:52.579Z,35.50
2023-02-04T03:46:20.638Z,35.50
2023-02-04T03:48:50.242Z,35.30
2023-02-04T03:51:19.939Z,35.20
2023-02-04T03:53:48.030Z,35.10
2023-02-04T03:56:16.138Z,35.30
2023-02-04T03:58:44.773Z,35.60
2023-02-04T04:01:12.920Z,35.90
2023-02-04T04:03:40.932Z,36.10
2023-02-04T04:06:11.070Z,36.90
2023-02-04T04:08:41.630Z,36.60
2023-02-04T04:11:24.465Z,36.70
2023-02-04T04:13:52.460Z,36.30
2023-02-04T04:16:21.896Z,36.10
2023-02-04T04:18:50.477Z,35.90
2023-02-04T04:21:18.533Z,35.60
2023-02-04T04:23:47.918Z,35.50
2023-02-04T04:26:17.604Z,35.40
2023-02-04T04:28:45.617Z,35.20
2023-02-04T04:31:14.146Z,35.20
2023-02-04T04:33:42.756Z,35.60
2023-02-04T04:36:10.984Z,35.90
2023-02-04T04:38:39.389Z,36.20
2023-02-04T04:41:09.546Z,36.40
2023-02-04T04:43:38.540Z,36.10
2023-02-04T04:46:07.390Z,36.00
2023-02-04T04:48:35.375Z,35.70
2023-02-04T04:51:03.555Z,35.60
2023-02-04T04:53:48.552Z,35.40
2023-02-04T04:56:30.399Z,35.30
2023-02-04T04:58:58.473Z,35.20
2023-02-04T05:01:28.001Z,35.10
2023-02-04T05:03:56.001Z,35.60
2023-02-04T05:06:25.455Z,35.90
2023-02-04T05:08:54.128Z,36.10
2023-02-04T05:11:23.665Z,36.40
2023-02-04T05:13:54.218Z,36.10
2023-02-04T05:16:22.306Z,36.00
2023-02-04T05:18:50.616Z,35.70
2023-02-04T05:21:19.024Z,35.50
2023-02-04T05:23:47.101Z,35.40
2023-02-04T05:26:25.154Z,35.30
2023-02-04T05:29:00.402Z,35.20
2023-02-04T05:31:32.222Z,35.10
2023-02-04T05:34:00.431Z,35.50
2023-02-04T05:36:28.446Z,35.70
2023-02-04T05:38:57.086Z,35.90
2023-02-04T05:41:25.192Z,36.20
2023-02-04T05:43:53.632Z,36.10
2023-02-04T05:46:23.127Z,35.90
2023-02-04T05:48:51.398Z,35.80
2023-02-04T05:51:19.514Z,35.50
2023-02-04T05:53:47.520Z,35.40
2023-02-04T05:56:15.591Z,35.30
2023-02-04T05:58:43.635Z,35.20
2023-02-04T06:01:11.682Z,35.10
2023-02-04T06:03:41.185Z,35.40
2023-02-04T06:06:09.810Z,35.70
2023-02-04T06:08:37.876Z,35.90
2023-02-04T06:11:06.088Z,36.20
2023-02-04T06:13:34.136Z,36.50
2023-02-04T06:16:02.184Z,36.70
2023-02-04T06:18:30.213Z,36.70
2023-02-04T06:20:59.632Z,36.20
2023-02-04T06:23:27.696Z,36.00
2023-02-04T06:25:55.749Z,35.90
2023-02-04T06:28:23.769Z,35.70
2023-02-04T06:30:52.671Z,35.50
2023-02-04T06:33:21.422Z,35.40
2023-02-04T06:35:49.464Z,35.30
2023-02-04T06:38:19.827Z,35.30
2023-02-04T06:40:49.535Z,35.80
2023-02-04T06:43:17.732Z,36.00
2023-02-04T06:45:45.854Z,36.20
2023-02-04T06:48:14.019Z,36.50
2023-02-04T06:50:42.572Z,36.00
2023-02-04T06:53:10.626Z,35.90
2023-02-04T06:55:40.157Z,35.70
2023-02-04T06:58:08.193Z,35.60
2023-02-04T07:00:36.269Z,35.50
2023-02-04T07:03:04.412Z,35.30
2023-02-04T07:05:33.055Z,35.20
2023-02-04T07:08:01.107Z,35.60
2023-02-04T07:10:33.229Z,35.60
2023-02-04T07:13:02.829Z,35.90
2023-02-04T07:15:32.220Z,36.10
2023-02-04T07:18:00.529Z,36.40
2023-02-04T07:20:28.728Z,36.10
2023-02-04T07:22:56.776Z,35.90
2023-02-04T07:25:30.353Z,35.80
2023-02-04T07:27:59.461Z,35.60
2023-02-04T07:30:29.201Z,35.50
2023-02-04T07:32:57.259Z,35.30
2023-02-04T07:35:25.680Z,35.10
2023-02-04T07:37:53.816Z,35.10
2023-02-04T07:40:22.394Z,35.40
2023-02-04T07:42:50.792Z,35.70
2023-02-04T07:45:18.997Z,35.90
2023-02-04T07:47:48.446Z,36.20
2023-02-04T07:50:17.230Z,36.20
2023-02-04T07:52:45.405Z,35.90
2023-02-04T07:55:13.526Z,35.80
2023-02-04T07:57:44.356Z,35.60
2023-02-04T08:00:14.524Z,35.50
2023-02-04T08:02:45.814Z,35.30
2023-02-04T08:05:18.502Z,35.30
2023-02-04T08:07:46.592Z,35.10
2023-02-04T08:10:15.209Z,35.30
2023-02-04T08:12:43.277Z,35.90
2023-02-04T08:15:11.429Z,36.10
2023-02-04T08:17:39.644Z,36.40
2023-02-04T08:20:09.885Z,36.80
2023-02-04T08:23:09.811Z,36.90
2023-02-04T08:25:53.667Z,36.80
2023-02-04T08:28:51.893Z,36.20
2023-02-04T08:31:26.778Z,36.10
2023-02-04T08:34:09.054Z,35.80
2023-02-04T08:36:58.180Z,35.60
2023-02-04T08:39:52.587Z,35.50
2023-02-04T08:48:17.307Z,35.90
2023-02-04T08:50:45.602Z,36.10
2023-02-04T08:53:13.951Z,36.60
2023-02-04T08:55:43.516Z,36.60
2023-02-04T08:58:11.676Z,36.10
2023-02-04T09:00:39.907Z,35.90
2023-02-04T09:03:08.035Z,35.70
2023-02-04T09:05:36.149Z,35.60
2023-02-04T09:08:04.749Z,35.40
2023-02-04T09:10:34.705Z,35.30
2023-02-04T09:13:04.276Z,35.20
2023-02-04T09:15:32.356Z,35.40
2023-02-04T09:18:11.686Z,35.70
2023-02-04T09:20:39.907Z,35.80
2023-02-04T09:23:09.152Z,36.40
2023-02-04T09:25:37.478Z,36.60
2023-02-04T09:28:07.140Z,36.10
2023-02-04T09:30:35.483Z,35.80
2023-02-04T09:33:03.620Z,35.70
2023-02-04T09:35:31.684Z,35.50
2023-02-04T09:37:59.699Z,35.30
2023-02-04T09:40:28.215Z,35.30
2023-02-04T09:42:56.407Z,35.10
2023-02-04T09:45:28.424Z,35.20
2023-02-04T09:47:57.958Z,35.70
2023-02-04T09:50:27.389Z,35.80
2023-02-04T09:52:56.606Z,36.30
2023-02-04T09:55:28.739Z,36.60
2023-02-04T09:57:57.278Z,36.10
2023-02-04T10:00:27.963Z,35.80
2023-02-04T10:02:56.517Z,35.70
2023-02-04T10:05:28.710Z,35.50
2023-02-04T10:07:59.531Z,35.30
2023-02-04T10:10:28.442Z,35.30
2023-02-04T10:12:59.051Z,35.10
2023-02-04T10:15:28.648Z,35.10
2023-02-04T10:17:59.201Z,35.60
2023-02-04T10:20:27.425Z,35.80
2023-02-04T10:22:56.217Z,35.90
2023-02-04T10:25:25.118Z,36.50
2023-02-04T10:27:54.526Z,36.70
2023-02-04T10:30:24.145Z,36.90
2023-02-04T10:32:53.711Z,36.40
2023-02-04T10:35:23.259Z,36.10
2023-02-04T10:38:03.842Z,35.90
2023-02-04T10:40:33.270Z,35.70
2023-02-04T10:43:15.099Z,35.50
2023-02-04T10:45:45.933Z,35.30
2023-02-04T10:48:18.697Z,35.30
2023-02-04T10:50:46.841Z,35.20
2023-02-04T10:53:33.272Z,35.80
2023-02-04T10:56:22.928Z,35.90
2023-02-04T10:58:57.396Z,36.00
2023-02-04T11:01:26.409Z,36.50
2023-02-04T11:03:55.828Z,36.00
2023-02-04T11:06:25.016Z,35.90
2023-02-04T11:08:55.431Z,35.60
2023-02-04T11:11:24.874Z,35.50
2023-02-04T11:14:00.867Z,35.40
2023-02-04T11:16:30.373Z,35.20
2023-02-04T11:19:00.690Z,35.10
2023-02-04T11:21:30.035Z,35.80
2023-02-04T11:24:19.133Z,35.50
2023-02-04T11:26:47.687Z,35.80
2023-02-04T11:29:34.610Z,36.10
2023-02-04T11:32:04.259Z,36.40
2023-02-04T11:34:47.427Z,35.90
2023-02-04T11:37:18.597Z,35.70
2023-02-04T11:39:47.392Z,35.50
2023-02-04T11:42:19.307Z,35.40
2023-02-04T11:44:53.359Z,35.20
2023-02-04T11:47:21.903Z,35.10
2023-02-04T11:49:58.948Z,35.00
2023-02-04T11:52:26.978Z,35.30
2023-02-04T11:54:56.122Z,35.50
2023-02-04T11:57:24.169Z,35.70
2023-02-04T11:59:52.232Z,35.90
2023-02-04T12:02:21.195Z,36.30
2023-02-04T12:04:54.796Z,35.90
2023-02-04T12:07:25.000Z,35.70
2023-02-04T12:10:12.732Z,35.50
2023-02-04T12:12:43.758Z,35.30
2023-02-04T12:15:15.881Z,35.20
2023-02-04T12:17:45.925Z,35.10
2023-02-04T12:20:15.515Z,35.00
2023-02-04T12:22:43.594Z,35.10
2023-02-04T12:25:16.827Z,35.60
2023-02-04T12:27:45.072Z,36.30
2023-02-04T12:30:14.059Z,35.80
2023-02-04T12:32:42.045Z,36.30
2023-02-04T12:35:10.174Z,36.60
2023-02-04T12:37:39.585Z,36.70
2023-02-04T12:40:08.676Z,36.20
2023-02-04T12:42:36.668Z,35.90
2023-02-04T12:45:05.089Z,35.80
2023-02-04T12:47:33.191Z,35.70
2023-02-04T12:50:01.810Z,35.40
2023-02-04T12:52:29.814Z,35.30
2023-02-04T12:55:00.266Z,35.20
2023-02-04T12:57:28.444Z,35.10
2023-02-04T12:59:59.604Z,35.40
2023-02-04T13:02:27.687Z,35.50
2023-02-04T13:04:55.786Z,35.90
2023-02-04T13:07:24.039Z,36.30
2023-02-04T13:09:52.400Z,36.00
2023-02-04T13:12:21.875Z,35.80
2023-02-04T13:14:50.275Z,35.70
2023-02-04T13:17:18.390Z,35.50
2023-02-04T13:19:46.426Z,35.30
2023-02-04T13:22:14.420Z,35.20
2023-02-04T13:24:43.171Z,35.10
2023-02-04T13:27:11.153Z,35.00
2023-02-04T13:29:40.536Z,35.40
2023-02-04T13:32:09.552Z,35.50
2023-02-04T13:34:37.612Z,35.60
2023-02-04T13:37:05.699Z,35.90
2023-02-04T13:39:33.721Z,36.20
2023-02-04T13:42:03.645Z,35.90
2023-02-04T13:44:32.559Z,35.70
2023-02-04T13:47:01.919Z,35.50
2023-02-04T13:49:29.950Z,35.30
2023-02-04T13:51:58.572Z,35.20
2023-02-04T13:54:26.857Z,35.20
2023-02-04T13:56:54.977Z,35.00
2023-02-04T13:59:23.411Z,35.30
2023-02-04T14:01:51.576Z,35.50
2023-02-04T14:04:20.986Z,35.70
2023-02-04T14:06:49.055Z,35.90
2023-02-04T14:09:17.375Z,36.30
2023-02-04T14:11:45.504Z,35.90
2023-02-04T14:14:16.051Z,35.70
2023-02-04T14:16:44.159Z,35.50
2023-02-04T14:19:12.884Z,35.30
2023-02-04T14:21:42.608Z,35.30
2023-02-04T14:24:10.861Z,35.10
2023-02-04T14:26:38.978Z,35.00
2023-02-04T14:29:07.068Z,35.00
2023-02-04T14:31:36.768Z,35.40
2023-02-04T14:34:04.949Z,35.70
2023-02-04T14:36:32.990Z,35.80
2023-02-04T14:39:02.556Z,36.30
2023-02-04T14:41:31.410Z,37.30
2023-02-04T14:44:00.112Z,36.90
2023-02-04T14:46:28.307Z,36.30
2023-02-04T14:48:56.543Z,36.00
2023-02-04T14:51:24.912Z,35.80
2023-02-04T14:53:52.946Z,35.70
2023-02-04T14:56:22.729Z,35.50
2023-02-04T14:58:50.929Z,35.30
2023-02-04T15:01:19.990Z,35.20
2023-02-04T15:03:48.168Z,35.10
2023-02-04T15:06:16.292Z,35.60
2023-02-04T15:08:45.499Z,35.80
2023-02-04T15:11:13.628Z,35.90
2023-02-04T15:13:43.242Z,36.40
2023-02-04T15:16:14.464Z,36.40
2023-02-04T15:18:43.125Z,35.90
2023-02-04T15:23:47.453Z,35.50
2023-02-04T15:26:15.728Z,35.40
2023-02-04T15:28:45.332Z,35.60
2023-02-04T15:31:14.079Z,36.70
2023-02-04T15:33:42.266Z,36.20
2023-02-04T15:36:10.611Z,36.10
2023-02-04T15:38:39.346Z,36.10
2023-02-04T15:41:08.021Z,36.40
2023-02-04T15:43:36.121Z,36.50
2023-02-04T15:46:06.039Z,36.80
2023-02-04T15:48:34.865Z,36.50
2023-02-04T15:51:02.969Z,36.30
2023-02-04T15:53:31.093Z,36.20
2023-02-04T15:55:59.295Z,36.10
2023-02-04T15:58:27.422Z,36.00
2023-02-04T16:00:55.481Z,35.80
2023-02-04T16:03:25.261Z,35.70
2023-02-04T16:08:30.915Z,36.20
2023-02-04T16:13:33.784Z,36.60
2023-02-04T16:16:02.295Z,37.00
2023-02-04T16:18:34.512Z,36.50
2023-02-04T16:21:03.666Z,36.30
2023-02-04T16:23:32.059Z,36.10
2023-02-04T16:26:00.252Z,35.90
2023-02-04T16:28:28.288Z,35.80
2023-02-04T16:30:57.335Z,35.60
2023-02-04T16:33:26.886Z,35.50
2023-02-04T16:36:00.755Z,35.50
2023-02-04T16:38:29.122Z,36.00
2023-02-04T16:40:58.416Z,36.20
2023-02-04T16:43:26.738Z,36.50
2023-02-04T16:45:55.525Z,36.80
2023-02-04T16:48:23.749Z,37.00
2023-02-04T16:50:51.838Z,37.10
2023-02-04T16:53:21.446Z,36.80
2023-02-04T16:55:50.007Z,36.50
2023-02-04T16:58:19.475Z,36.30
2023-02-04T17:00:48.262Z,36.10
2023-02-04T17:03:17.148Z,35.90
2023-02-04T17:05:48.653Z,35.80
2023-02-04T17:08:17.417Z,35.60
2023-02-04T17:11:06.141Z,35.60
2023-02-04T17:13:34.668Z,35.90
2023-02-04T17:16:02.932Z,36.40
2023-02-04T17:21:00.294Z,36.80
2023-02-04T17:23:29.575Z,36.60
2023-02-04T17:25:59.123Z,36.40
2023-02-04T17:28:27.154Z,36.20
2023-02-04T17:30:55.329Z,36.00
2023-02-04T17:33:24.651Z,36.10
2023-02-04T17:35:53.728Z,36.10
2023-02-04T17:40:51.777Z,36.20
2023-02-04T17:43:21.763Z,36.50
2023-02-04T17:45:49.933Z,36.90
2023-02-04T17:50:56.158Z,37.30
2023-02-04T17:53:24.725Z,37.20
2023-02-04T17:55:52.949Z,36.90
2023-02-04T17:58:23.985Z,36.70
2023-02-04T18:00:52.398Z,36.70
2023-02-04T18:03:21.804Z,36.60
2023-02-04T18:05:51.469Z,36.40
2023-02-04T18:08:20.749Z,36.20
2023-02-04T18:10:49.368Z,36.10
2023-02-04T18:13:18.329Z,36.20
2023-02-04T18:29:24.805Z,36.60
2023-02-04T18:31:54.605Z,36.30
2023-02-04T18:34:36.441Z,36.20
2023-02-04T18:37:31.171Z,36.10
2023-02-04T18:40:30.528Z,36.00
2023-02-04T18:43:04.824Z,35.80
2023-02-04T18:45:34.563Z,36.30
2023-02-04T18:48:03.524Z,36.70
2023-02-04T18:50:32.774Z,36.90
2023-02-04T18:53:01.706Z,37.10
2023-02-04T18:55:32.689Z,37.30
2023-02-04T18:58:12.163Z,37.40
2023-02-04T19:00:42.960Z,37.00
2023-02-04T19:03:21.343Z,36.90
2023-02-04T19:05:49.662Z,36.70
2023-02-04T19:08:27.995Z,36.40
2023-02-04T19:10:56.735Z,36.30
2023-02-04T19:13:26.887Z,36.10
2023-02-04T19:15:59.568Z,36.00
2023-02-04T19:18:28.948Z,36.30
2023-02-04T19:20:57.190Z,36.80
2023-02-04T19:23:25.705Z,37.60
2023-02-04T19:25:54.353Z,38.00
2023-02-04T19:28:34.773Z,37.90
2023-02-04T19:31:04.608Z,39.20
2023-02-04T19:33:34.301Z,39.20
2023-02-04T19:41:26.256Z,37.40
2023-02-04T19:43:57.744Z,37.10
2023-02-04T19:46:27.879Z,36.90
2023-02-04T19:48:56.229Z,36.80
2023-02-04T19:51:28.245Z,37.40
2023-02-04T19:53:59.368Z,37.60
2023-02-04T19:56:30.523Z,37.90
2023-02-04T19:58:58.855Z,37.90
2023-02-04T20:01:30.117Z,37.50
2023-02-04T20:04:01.784Z,37.20
2023-02-04T20:06:32.767Z,37.00
2023-02-04T20:09:05.544Z,36.90
2023-02-04T20:12:05.874Z,36.80
2023-02-04T20:14:52.583Z,36.60
2023-02-04T20:17:24.425Z,36.50
2023-02-04T20:19:52.514Z,36.60
2023-02-04T20:22:49.664Z,37.10
2023-02-04T20:25:41.769Z,37.40
2023-02-04T20:28:39.939Z,37.60
2023-02-04T20:31:27.043Z,37.50
2023-02-04T20:33:57.374Z,37.20
2023-02-04T20:36:40.966Z,37.00
2023-02-04T20:39:40.155Z,36.90
2023-02-04T20:42:45.086Z,36.70
2023-02-04T20:45:27.849Z,36.50
2023-02-04T20:47:58.204Z,36.40
2023-02-04T20:50:41.622Z,36.50
2023-02-04T20:53:18.126Z,37.10
2023-02-04T20:55:48.379Z,37.40
2023-02-04T20:58:17.827Z,37.60
2023-02-04T21:00:47.912Z,37.80
2023-02-04T21:03:25.691Z,38.00
2023-02-04T21:05:56.144Z,37.80
2023-02-04T21:08:33.839Z,37.30
2023-02-04T21:11:02.134Z,37.10
2023-02-04T21:13:30.204Z,36.90
2023-02-04T21:15:58.461Z,36.70
2023-02-04T21:18:26.602Z,36.50
2023-02-04T21:20:56.279Z,36.30
2023-02-04T21:23:24.690Z,36.30
2023-02-04T21:25:52.820Z,36.50
2023-02-04T21:28:21.650Z,37.10
2023-02-04T21:30:49.749Z,37.30
2023-02-04T21:33:17.967Z,37.50
2023-02-04T21:35:46.097Z,37.50
2023-02-04T21:38:15.545Z,37.10
2023-02-04T21:40:43.789Z,37.00
2023-02-04T21:43:11.989Z,36.70
2023-02-04T21:45:40.658Z,36.60
2023-02-04T21:48:09.026Z,36.40
2023-02-04T21:50:42.646Z,36.30
2023-02-04T21:53:10.896Z,36.20
2023-02-04T21:55:40.446Z,36.00
2023-02-04T21:58:09.068Z,36.70
2023-02-04T22:00:37.141Z,37.10
2023-02-04T22:03:06.194Z,37.30
2023-02-04T22:05:34.761Z,37.50
2023-02-04T22:08:03.096Z,37.10
2023-02-04T22:10:31.212Z,36.80
2023-02-04T22:13:00.621Z,36.70
2023-02-04T22:15:28.927Z,36.60
2023-02-04T22:17:57.028Z,36.40
2023-02-04T22:20:25.573Z,36.30
2023-02-04T22:22:53.902Z,36.20
2023-02-04T22:25:22.064Z,36.00
2023-02-04T22:27:50.261Z,36.60
2023-02-04T22:30:20.033Z,36.90
2023-02-04T22:32:48.428Z,37.30
2023-02-04T22:35:16.588Z,37.30
2023-02-04T22:37:44.607Z,37.30
2023-02-04T22:40:13.117Z,36.80
2023-02-04T22:42:41.136Z,36.70
2023-02-04T22:45:10.320Z,36.40
2023-02-04T22:47:39.910Z,36.40
2023-02-04T22:50:09.049Z,36.30
2023-02-04T22:52:37.198Z,36.10
2023-02-04T22:55:05.680Z,36.00
2023-02-04T22:57:33.714Z,36.20
2023-02-04T23:00:01.766Z,36.70
2023-02-04T23:02:29.810Z,36.90
2023-02-04T23:04:59.236Z,37.20
2023-02-04T23:07:27.452Z,37.40
2023-02-04T23:09:55.593Z,37.60
2023-02-04T23:12:23.857Z,37.60
2023-02-04T23:14:51.899Z,37.20
2023-02-04T23:17:20.145Z,36.90
2023-02-04T23:19:48.259Z,36.70
2023-02-04T23:22:17.665Z,36.60
2023-02-04T23:24:45.725Z,36.40
2023-02-04T23:27:13.714Z,36.20
2023-02-04T23:29:41.762Z,36.10
2023-02-04T23:32:09.922Z,36.10
2023-02-04T23:34:37.963Z,36.70
2023-02-04T23:37:06.023Z,37.00
2023-02-04T23:39:35.416Z,37.20
2023-02-04T23:42:03.448Z,37.40
2023-02-04T23:44:31.521Z,37.00
2023-02-04T23:46:59.927Z,36.80
2023-02-04T23:49:28.022Z,36.60
2023-02-04T23:51:56.047Z,36.50
2023-02-04T23:54:24.713Z,36.30
2023-02-04T23:56:54.550Z,36.10
2023-02-04T23:59:22.600Z,36.10
